Impacts TAF Board
For situational awareness. Not to be used for flight planning purposes.
IDs:

KLGA - New York/La Guardia, NY, US

Issued at 1126 UTC 10 Aug 2022
Updated at 1359 UTC 10 Aug 2022
Potential Impact None Slight Moderate High
Time1351Z 10/14Z 10/15Z 10/16Z 10/17Z 10/18Z 10/19Z 10/20Z 10/21Z 10/22Z 10/23Z 11/00Z 11/01Z 11/02Z>>
Type OBS PRVL PRVL PRVL PRVL PRVL PRVL PRVL PRVL PRVL PRVL PRVL PRVL PRVL
  [PRB30]  
VIS 10 >6 >6 >6 >6 >6 >6 >6 >6 >6 >6 >6 >6 >6
  [>6]  
CIG 60 -- -- -- 45 45 45 45 60 60 60 60 60 60
  [60]  
Cover BKN SCT SCT SCT BKN BKN BKN BKN BKN BKN BKN OVC OVC OVC
  [OVC]  
FltCat VFR VFR VFR VFR VFR VFR VFR VFR VFR VFR VFR VFR VFR VFR
  [VFR]  
WX -- -- -- -- -- -- -- -- -- -- -- -- -- --
  [-SHRA]  
WDir 60 10 10 10 VRB VRB VRB VRB 140 140 140 VRB VRB VRB
[VRB]
WSpd 7 8 8 8 3 3 3 3 9 9 9 5 5 5
  [5]  
WGst -- -- -- -- -- -- -- -- -- -- -- -- -- --
  [--]  
WSHgt -- -- -- -- -- -- -- -- -- -- -- -- -- --
[--]
WSDir -- -- -- -- -- -- -- -- -- -- -- -- -- --
[--]
WSSpd -- -- -- -- -- -- -- -- -- -- -- -- -- --
[--]
Raw TAF
KLGA 101126Z 1012/1118 01008KT P6SM SCT040 SCT120
  FM101700 VRB03KT P6SM BKN045
  FM102100 14009KT P6SM BKN060
  FM110000 VRB05KT P6SM OVC060
  PROB30 1102/1107 -SHRA
  FM110800 03004KT P6SM OVC040
  PROB30 1108/1113 -SHRA


Raw METAR
KLGA 101351Z 06007KT 10SM BKN060 27/16 A3005 RMK AO2 SLP176 T02670161
KLGA 101251Z 03007KT 10SM SCT045 BKN055 26/16 A3006 RMK AO2 SLP179 T02610156
KLGA 101151Z 01004KT 10SM BKN036 24/16 A3005 RMK AO2 SLP176 70005 T02440161 10267 20239 53017
KLGA 101051Z 03008KT 10SM FEW035 SCT120 SCT250 24/16 A3003 RMK AO2 SLP168 T02440161

METAR Board
Radar Display
Forecast Discussion
For situational awareness. Not to be used for flight planning purposes.